Time;durP1;ratioP1;P1;durP2;ratioP2;P2;SDS_P1;SDS_P2;PMS_P1;PMS_P2;Temp;Humidity;BMP_temperature;BMP_pressure;BME280_temperature;BME280_humidity;BME280_pressure;Samples;Min_cycle;Max_cycle;Signal;HPM_P1;HPM_P2
2021/05/06 00:36:50;;;;;;;5.62;2.10;;;;;;;5.79;74.46;98302.27;4431968;78;21181;-85
2021/05/06 01:08:00;;;;;;;6.65;1.70;;;;;;;5.64;74.78;98336.27;4450839;79;23149;-85
2021/05/06 01:14:06;;;;;;;3.83;1.60;;;;;;;5.50;74.33;98348.20;4377761;80;21224;-85
2021/05/06 01:20:26;;;;;;;4.30;1.60;;;;;;;5.42;74.29;98358.72;4385855;80;21219;-85
2021/05/06 01:26:33;;;;;;;5.15;1.55;;;;;;;5.34;74.83;98361.84;4383645;80;21118;-85
2021/05/06 01:32:45;;;;;;;5.05;2.00;;;;;;;5.29;74.66;98369.48;4386781;80;21624;-85
2021/05/06 01:45:29;;;;;;;6.55;2.17;;;;;;;5.21;74.46;98368.55;4380940;80;21165;-85
2021/05/06 01:57:29;;;;;;;6.72;1.82;;;;;;;5.12;74.66;98363.87;4375313;80;21642;-85
2021/05/06 02:03:36;;;;;;;4.10;2.08;;;;;;;4.96;74.83;98365.85;4380461;80;21315;-85
2021/05/06 02:09:38;;;;;;;3.65;1.60;;;;;;;4.70;74.94;98366.95;4358222;80;21553;-85
2021/05/06 02:15:42;;;;;;;8.20;2.40;;;;;;;4.58;74.81;98376.55;4362781;80;21191;-85
2021/05/06 02:21:44;;;;;;;5.87;2.35;;;;;;;4.52;74.60;98377.39;4363353;80;21164;-85
2021/05/06 02:27:47;;;;;;;4.95;2.42;;;;;;;4.47;74.60;98378.20;4358166;81;21181;-85
2021/05/06 02:33:49;;;;;;;7.85;2.87;;;;;;;4.46;74.67;98381.48;4363573;80;21293;-85
2021/05/06 02:39:50;;;;;;;6.15;3.02;;;;;;;4.45;74.66;98378.56;4360791;80;21155;-86
2021/05/06 02:45:53;;;;;;;6.53;3.27;;;;;;;4.36;74.77;98382.02;4357843;81;21170;-85
2021/05/06 02:52:00;;;;;;;6.47;3.42;;;;;;;4.36;75.26;98382.02;4363466;80;21572;-86
2021/05/06 02:58:04;;;;;;;4.65;2.45;;;;;;;4.13;74.62;98392.42;4361184;81;21750;-85
2021/05/06 03:04:04;;;;;;;7.03;2.20;;;;;;;3.96;74.67;98392.73;4378024;80;21177;-85
2021/05/06 03:28:47;;;;;;;5.50;2.45;;;;;;;4.07;75.38;98424.96;4501362;79;21271;-85
2021/05/06 03:35:03;;;;;;;6.92;2.40;;;;;;;3.94;74.89;98442.39;4500207;79;21158;-85
2021/05/06 04:18:39;;;;;;;5.30;2.72;;;;;;;4.37;75.20;98521.78;4458993;80;21129;-86
2021/05/06 04:37:19;;;;;;;13.13;4.12;;;;;;;4.82;74.98;98543.14;4462237;80;21156;-85
2021/05/06 04:56:17;;;;;;;8.40;4.90;;;;;;;5.61;73.91;98561.79;4313321;82;21177;-85
2021/05/06 05:08:40;;;;;;;8.65;4.62;;;;;;;6.05;73.86;98559.14;4287802;82;21166;-86
2021/05/06 05:15:03;;;;;;;7.72;3.85;;;;;;;6.29;73.81;98557.54;4322663;81;21146;-86
2021/05/06 05:27:14;;;;;;;6.95;3.77;;;;;;;6.75;72.89;98569.31;4320526;82;21150;-86
2021/05/06 05:33:18;;;;;;;7.08;3.47;;;;;;;7.01;72.55;98574.88;4399513;81;21165;-86
2021/05/06 05:40:11;;;;;;;5.03;2.17;;;;;;;7.19;72.14;98574.60;4390552;81;21178;-86
2021/05/06 05:58:47;;;;;;;5.25;2.12;;;;;;;7.92;70.06;98572.28;4495391;78;21145;-86
2021/05/06 06:04:48;;;;;;;8.43;2.02;;;;;;;8.05;69.00;98584.36;4488710;78;21571;-86
2021/05/06 06:10:50;;;;;;;4.15;2.15;;;;;;;8.33;69.31;98583.41;4501596;78;21469;-86
2021/05/06 06:16:52;;;;;;;6.25;2.08;;;;;;;8.73;68.51;98580.79;4496490;78;21566;-86
2021/05/06 06:22:53;;;;;;;4.60;2.10;;;;;;;9.16;68.09;98576.78;4493334;78;21124;-86
2021/05/06 06:29:02;;;;;;;4.28;1.98;;;;;;;9.51;67.40;98573.59;4487823;79;21270;-86
2021/05/06 06:35:02;;;;;;;7.58;2.30;;;;;;;9.81;67.76;98568.76;4494024;79;21117;-87
2021/05/06 06:41:06;;;;;;;6.25;2.00;;;;;;;9.89;66.53;98573.12;4496302;79;21634;-87
2021/05/06 06:47:08;;;;;;;4.42;2.10;;;;;;;10.03;65.99;98573.20;4494747;78;21314;-86
2021/05/06 06:53:12;;;;;;;3.62;2.02;;;;;;;10.06;65.01;98581.22;4499847;77;21133;-87
2021/05/06 06:59:13;;;;;;;3.02;1.60;;;;;;;10.31;65.27;98571.24;4494565;78;21553;-87
2021/05/06 07:05:14;;;;;;;5.70;1.60;;;;;;;10.36;61.73;98572.25;4494252;79;21120;-87
2021/05/06 07:11:16;;;;;;;5.50;1.80;;;;;;;10.75;63.50;98575.37;4501900;78;21133;-88
2021/05/06 07:17:17;;;;;;;3.17;1.57;;;;;;;10.63;61.19;98573.56;4496864;78;21140;-88
2021/05/06 07:23:21;;;;;;;7.37;1.80;;;;;;;10.42;61.52;98562.50;4490301;79;21833;-87
2021/05/06 07:29:22;;;;;;;3.15;1.30;;;;;;;10.72;61.24;98565.77;4487598;78;21168;-87
2021/05/06 07:35:24;;;;;;;3.77;1.40;;;;;;;10.98;60.68;98561.34;4503621;78;21139;-87
2021/05/06 07:41:26;;;;;;;8.68;1.47;;;;;;;11.08;60.95;98563.33;4395417;81;21144;-86
2021/05/06 07:47:27;;;;;;;3.95;1.22;;;;;;;11.53;60.76;98563.97;4382539;81;21129;-87
2021/05/06 07:53:47;;;;;;;2.80;1.35;;;;;;;12.45;58.15;98564.64;4351854;81;21158;-87
2021/05/06 07:59:45;;;;;;;4.37;1.13;;;;;;;13.52;58.04;98560.96;4337730;81;21181;-88
2021/05/06 08:05:47;;;;;;;2.95;1.00;;;;;;;14.00;57.84;98541.88;4348495;81;21663;-87
2021/05/06 08:11:52;;;;;;;2.58;1.32;;;;;;;13.46;56.06;98538.63;4346443;81;21451;-87
2021/05/06 08:17:53;;;;;;;6.08;1.98;;;;;;;13.43;57.58;98540.02;4346183;81;21225;-86
2021/05/06 08:23:56;;;;;;;1.85;1.27;;;;;;;13.91;55.29;98533.91;4345572;81;21866;-87
2021/05/06 08:30:00;;;;;;;5.60;1.70;;;;;;;13.82;50.72;98541.27;4354742;80;21151;-87
2021/05/06 08:36:02;;;;;;;3.42;1.35;;;;;;;13.63;52.86;98540.45;4351254;80;21578;-88
2021/05/06 08:42:04;;;;;;;3.27;1.70;;;;;;;13.97;53.13;98544.66;4390180;80;21168;-87
2021/05/06 08:48:07;;;;;;;5.65;1.72;;;;;;;13.77;51.34;98549.95;4358992;80;21150;-87
2021/05/06 08:54:09;;;;;;;4.97;1.75;;;;;;;13.79;52.05;98539.92;4388110;81;21138;-87
2021/05/06 09:00:12;;;;;;;2.55;1.67;;;;;;;13.56;50.97;98541.11;4385810;81;21150;-87
2021/05/06 09:06:19;;;;;;;5.78;1.90;;;;;;;13.87;50.79;98529.05;4398262;79;21173;-87
2021/05/06 09:12:38;;;;;;;3.15;1.55;;;;;;;14.02;49.29;98529.87;4309138;82;21282;-87
2021/05/06 09:18:46;;;;;;;3.42;1.55;;;;;;;14.45;47.46;98522.55;4402734;79;21592;-88
2021/05/06 09:24:47;;;;;;;4.58;1.67;;;;;;;15.17;47.13;98521.98;4394705;81;21130;-88
2021/05/06 09:30:59;;;;;;;2.60;1.40;;;;;;;16.08;47.80;98518.33;4373665;81;21180;-87
2021/05/06 09:37:02;;;;;;;3.40;1.67;;;;;;;16.39;45.32;98511.41;4386465;81;21165;-87
2021/05/06 09:43:03;;;;;;;5.22;1.77;;;;;;;15.72;45.76;98517.39;4319207;82;21307;-88
2021/05/06 09:49:14;;;;;;;1.85;1.15;;;;;;;15.34;45.89;98511.28;4393742;80;21144;-88
2021/05/06 09:55:16;;;;;;;2.45;1.00;;;;;;;16.78;46.88;98511.42;4355179;80;21158;-89
2021/05/06 10:01:17;;;;;;;3.87;0.90;;;;;;;16.50;43.78;98515.56;4352146;80;21460;-89
2021/05/06 10:07:23;;;;;;;1.72;0.98;;;;;;;15.82;42.59;98517.83;4355638;80;21322;-90
2021/05/06 10:13:25;;;;;;;2.12;0.70;;;;;;;15.28;39.63;98516.50;4383933;80;21361;-89
2021/05/06 10:19:26;;;;;;;2.15;1.10;;;;;;;14.82;41.27;98517.75;4338887;80;21547;-90
2021/05/06 10:25:28;;;;;;;4.55;1.07;;;;;;;14.65;41.57;98521.52;4329672;80;21682;-90
2021/05/06 10:31:30;;;;;;;7.92;1.30;;;;;;;14.45;42.80;98525.30;4334452;80;21615;-91
2021/05/06 10:37:42;;;;;;;3.10;0.90;;;;;;;14.27;42.97;98530.25;4336405;82;21622;-89
2021/05/06 10:44:03;;;;;;;2.37;1.27;;;;;;;13.90;43.66;98528.22;4338459;80;21119;-90
2021/05/06 10:50:16;;;;;;;3.20;1.02;;;;;;;13.53;43.45;98535.05;4323065;80;21286;-89
2021/05/06 10:56:18;;;;;;;3.10;1.42;;;;;;;13.07;44.98;98550.48;4330738;80;21150;-89
2021/05/06 11:02:44;;;;;;;1.62;1.00;;;;;;;13.09;45.88;98541.22;4386038;80;21133;-89
2021/05/06 11:08:45;;;;;;;2.67;1.37;;;;;;;13.45;45.01;98535.67;4353125;80;21311;-88
2021/05/06 11:15:06;;;;;;;2.90;1.40;;;;;;;13.36;44.22;98532.60;4353015;80;21289;-90
2021/05/06 11:21:08;;;;;;;1.82;1.15;;;;;;;13.08;44.50;98538.29;4354807;80;21388;-89
2021/05/06 11:27:15;;;;;;;5.83;1.20;;;;;;;12.95;44.85;98535.78;4350322;80;21169;-89
2021/05/06 11:33:23;;;;;;;4.33;1.62;;;;;;;13.03;45.14;98527.72;4383956;80;21137;-89
2021/05/06 11:39:25;;;;;;;3.92;1.60;;;;;;;13.24;44.80;98517.18;4338350;80;21182;-90
2021/05/06 11:45:29;;;;;;;4.42;1.30;;;;;;;13.58;45.17;98507.09;4382766;80;21137;-90
2021/05/06 11:51:37;;;;;;;2.72;1.32;;;;;;;14.33;45.19;98499.08;4371418;80;21161;-89
2021/05/06 11:57:44;;;;;;;3.87;1.25;;;;;;;16.09;44.31;98491.67;4385796;80;21336;-89
2021/05/06 12:03:47;;;;;;;3.67;1.47;;;;;;;16.80;43.61;98489.67;4382280;80;21142;-90
2021/05/06 12:09:51;;;;;;;2.50;1.42;;;;;;;16.37;43.14;98484.81;4390204;80;21626;-89
2021/05/06 12:15:53;;;;;;;3.33;1.62;;;;;;;15.72;41.93;98471.87;4398600;80;21128;-89
2021/05/06 12:21:58;;;;;;;3.00;1.30;;;;;;;14.86;43.42;98480.50;4386915;80;21527;-89
2021/05/06 12:28:00;;;;;;;3.92;1.50;;;;;;;14.20;43.12;98487.78;4388261;80;21491;-90
2021/05/06 12:34:15;;;;;;;4.28;1.30;;;;;;;13.67;44.60;98476.55;4394441;80;21132;-89
2021/05/06 12:40:17;;;;;;;3.90;1.60;;;;;;;13.49;45.46;98471.03;4391574;79;21581;-89
2021/05/06 12:46:25;;;;;;;5.10;1.60;;;;;;;13.65;45.04;98446.53;4396627;80;21212;-89
2021/05/06 12:52:49;;;;;;;6.12;1.30;;;;;;;13.90;44.27;98445.68;4390713;80;21157;-89
2021/05/06 12:58:50;;;;;;;3.92;1.50;;;;;;;14.00;44.48;98436.55;4314000;81;21153;-90
2021/05/06 13:04:56;;;;;;;5.17;1.40;;;;;;;13.80;44.18;98434.19;4389410;79;21174;-90
2021/05/06 13:11:05;;;;;;;3.00;1.30;;;;;;;13.70;45.13;98437.84;4387335;79;21181;-90
2021/05/06 13:17:29;;;;;;;1.57;1.00;;;;;;;13.61;44.34;98423.77;4310191;81;21180;-89
2021/05/06 13:23:34;;;;;;;4.47;1.10;;;;;;;13.36;45.04;98446.01;4343737;80;21586;-89
2021/05/06 13:29:39;;;;;;;2.85;1.70;;;;;;;13.37;44.75;98439.34;4337793;80;21349;-89
2021/05/06 13:35:41;;;;;;;6.80;2.05;;;;;;;13.33;45.48;98427.58;4317120;80;21282;-89
2021/05/06 13:41:47;;;;;;;4.92;1.42;;;;;;;13.55;45.67;98435.03;4390807;80;21152;-89
2021/05/06 13:47:49;;;;;;;2.75;1.60;;;;;;;13.80;45.56;98417.09;4347136;80;21287;-89
2021/05/06 13:53:51;;;;;;;2.92;1.40;;;;;;;14.22;45.23;98410.91;4314624;80;21206;-89
2021/05/06 13:59:53;;;;;;;8.35;1.52;;;;;;;14.31;45.00;98402.36;4311198;81;21747;-90
2021/05/06 14:05:55;;;;;;;3.42;1.15;;;;;;;15.10;41.33;98393.30;4321751;81;21206;-91
2021/05/06 14:11:57;;;;;;;4.22;1.72;;;;;;;15.05;41.58;98395.15;4324033;81;21162;-90
2021/05/06 14:17:58;;;;;;;3.52;1.90;;;;;;;14.98;42.38;98391.14;4328003;81;21745;-91
2021/05/06 14:23:59;;;;;;;3.12;1.40;;;;;;;15.38;43.35;98371.38;4331066;81;21315;-90
2021/05/06 14:30:01;;;;;;;3.02;1.40;;;;;;;15.73;42.82;98377.63;4323090;81;21635;-90
2021/05/06 14:36:09;;;;;;;10.63;2.00;;;;;;;15.50;42.70;98372.16;4325337;81;21161;-90
2021/05/06 14:42:11;;;;;;;5.25;2.08;;;;;;;14.81;41.91;98379.02;4325144;81;21168;-90
2021/05/06 14:48:14;;;;;;;3.42;1.30;;;;;;;14.26;43.57;98400.06;4322828;81;21664;-91
2021/05/06 14:54:23;;;;;;;4.72;1.60;;;;;;;14.46;43.19;98387.78;4342952;80;21714;-91
2021/05/06 15:00:24;;;;;;;3.47;1.27;;;;;;;14.49;43.13;98382.23;4385774;80;21617;-90
2021/05/06 15:06:26;;;;;;;3.60;1.27;;;;;;;15.00;43.11;98361.16;4355531;80;21295;-91
2021/05/06 15:12:28;;;;;;;1.87;1.00;;;;;;;15.03;43.67;98360.95;4350072;79;21604;-91
2021/05/06 15:18:30;;;;;;;2.47;1.27;;;;;;;14.93;42.46;98358.55;4354546;80;21535;-90
2021/05/06 15:24:31;;;;;;;2.95;1.20;;;;;;;14.71;42.75;98350.43;4353453;80;21177;-90
2021/05/06 15:30:34;;;;;;;3.58;1.30;;;;;;;14.26;43.41;98351.09;4355944;80;21298;-89
2021/05/06 15:36:35;;;;;;;3.35;1.95;;;;;;;13.80;43.74;98336.52;4353235;80;22312;-88
2021/05/06 15:42:39;;;;;;;2.30;1.32;;;;;;;13.48;45.30;98330.63;4382008;80;21634;-89
2021/05/06 15:48:41;;;;;;;3.10;1.47;;;;;;;13.43;46.34;98317.33;4388357;80;21640;-88
2021/05/06 15:54:42;;;;;;;3.67;1.40;;;;;;;13.55;45.02;98294.20;4386584;79;21174;-91
2021/05/06 16:00:44;;;;;;;3.65;1.42;;;;;;;13.51;45.23;98281.11;4386366;79;21172;-89
2021/05/06 16:06:46;;;;;;;6.15;1.82;;;;;;;13.27;45.48;98267.04;4383903;79;21119;-90
2021/05/06 16:12:47;;;;;;;4.15;1.90;;;;;;;13.12;46.00;98264.86;4391200;79;21273;-89
2021/05/06 16:18:49;;;;;;;3.72;2.02;;;;;;;13.15;46.35;98265.41;4387127;80;22252;-89
2021/05/06 16:24:50;;;;;;;8.20;2.25;;;;;;;13.32;46.44;98251.48;4355352;80;21174;-88
2021/05/06 16:30:52;;;;;;;28.17;16.93;;;;;;;13.41;46.49;98264.72;4345205;80;21188;-89
2021/05/06 16:43:29;;;;;;;4.55;2.12;;;;;;;13.22;47.08;98248.83;4445249;79;22984;-89
2021/05/06 16:49:11;;;;;;;4.67;2.00;;;;;;;13.02;47.03;98236.30;4375791;80;21142;-90
2021/05/06 16:55:21;;;;;;;4.97;2.25;;;;;;;12.86;46.75;98242.91;4378661;80;21146;-87
2021/05/06 17:01:29;;;;;;;6.08;2.15;;;;;;;12.76;47.90;98249.30;4381872;80;21553;-86
2021/05/06 17:07:31;;;;;;;7.17;2.20;;;;;;;12.54;47.05;98246.55;4398452;80;21153;-87
2021/05/06 17:13:32;;;;;;;6.65;2.33;;;;;;;12.47;47.30;98243.86;4394433;80;21172;-84
2021/05/06 17:19:35;;;;;;;6.05;2.50;;;;;;;12.42;47.41;98240.17;4383139;80;21600;-84
2021/05/06 17:25:36;;;;;;;8.73;3.30;;;;;;;12.36;47.55;98238.47;4382217;80;21192;-84
2021/05/06 17:31:39;;;;;;;7.53;2.60;;;;;;;12.20;47.10;98236.06;4366307;79;30882;-84
2021/05/06 17:37:42;;;;;;;6.60;3.15;;;;;;;11.95;47.18;98245.80;4296463;78;21346;-86
2021/05/06 17:43:43;;;;;;;5.40;2.70;;;;;;;11.81;47.24;98240.98;4304085;82;21144;-85
2021/05/06 17:49:45;;;;;;;8.30;3.15;;;;;;;11.64;48.39;98246.77;4302184;82;21606;-84
2021/05/06 17:55:47;;;;;;;6.67;3.72;;;;;;;11.46;49.48;98249.38;4302754;82;21157;-84
2021/05/06 18:01:49;;;;;;;7.10;2.87;;;;;;;11.37;49.99;98249.80;4286963;82;21362;-87
2021/05/06 18:07:50;;;;;;;5.20;2.42;;;;;;;11.12;50.77;98253.20;4306294;82;21912;-87
2021/05/06 18:13:53;;;;;;;9.43;2.90;;;;;;;10.95;50.41;98263.63;4302124;82;21184;-87
2021/05/06 18:19:56;;;;;;;3.92;2.33;;;;;;;10.72;51.11;98266.02;4306872;82;21200;-87
2021/05/06 18:25:58;;;;;;;6.95;3.47;;;;;;;10.48;51.47;98264.85;4303267;82;21200;-88
2021/05/06 18:31:59;;;;;;;9.20;3.37;;;;;;;10.35;51.62;98262.91;4313369;82;21169;-87
2021/05/06 18:38:01;;;;;;;7.03;3.33;;;;;;;10.30;51.98;98271.50;4298096;82;21662;-88
2021/05/06 18:44:04;;;;;;;6.83;3.77;;;;;;;10.25;51.91;98265.04;4134048;85;21198;-87
2021/05/06 18:50:10;;;;;;;7.62;3.87;;;;;;;10.19;52.10;98272.87;4140294;85;21229;-87
2021/05/06 18:56:12;;;;;;;8.48;4.20;;;;;;;10.10;52.52;98269.70;4099799;87;21713;-87
2021/05/06 19:02:14;;;;;;;12.70;6.05;;;;;;;10.02;52.45;98269.50;4154261;85;21618;-87
2021/05/06 19:08:16;;;;;;;12.65;5.12;;;;;;;10.03;52.58;98272.41;4100753;86;21186;-88
2021/05/06 19:14:18;;;;;;;11.12;4.37;;;;;;;10.09;53.10;98274.98;4091057;87;21515;-87
2021/05/06 19:20:19;;;;;;;7.90;3.67;;;;;;;10.07;53.12;98279.27;4100136;87;21181;-87
2021/05/06 19:26:22;;;;;;;6.25;3.22;;;;;;;10.07;53.17;98282.00;4060248;86;21177;-87
2021/05/06 19:32:23;;;;;;;9.88;3.77;;;;;;;10.10;53.28;98277.91;4081796;87;21663;-87
2021/05/06 19:38:25;;;;;;;7.85;3.50;;;;;;;10.10;53.36;98282.02;4096192;86;21190;-86
2021/05/06 19:44:29;;;;;;;9.95;3.62;;;;;;;10.11;53.51;98282.80;4178171;84;21827;-87
2021/05/06 19:50:30;;;;;;;8.58;4.95;;;;;;;10.02;53.86;98290.00;4190874;84;21602;-86
2021/05/06 19:56:32;;;;;;;9.43;5.30;;;;;;;9.89;54.17;98288.00;4213279;84;21185;-87
2021/05/06 20:02:34;;;;;;;14.65;7.95;;;;;;;9.85;54.52;98277.66;4182789;84;21341;-86
2021/05/06 20:08:35;;;;;;;19.95;10.45;;;;;;;9.75;54.53;98274.30;4178320;84;21203;-87
2021/05/06 20:14:38;;;;;;;22.67;11.90;;;;;;;9.72;54.52;98261.41;4185505;84;21155;-87
2021/05/06 20:21:05;;;;;;;24.55;11.93;;;;;;;9.77;54.52;98253.63;4201338;84;21166;-86
2021/05/06 20:27:01;;;;;;;24.10;11.28;;;;;;;9.86;54.53;98256.77;4192184;84;21165;-87
2021/05/06 20:33:03;;;;;;;21.62;10.43;;;;;;;9.93;54.68;98248.56;4210152;84;22022;-87
2021/05/06 20:51:59;;;;;;;14.05;6.80;;;;;;;10.00;54.77;98219.88;4485934;78;21140;-86
2021/05/06 20:58:00;;;;;;;11.00;5.90;;;;;;;10.02;55.04;98207.18;4479660;78;21154;-87
2021/05/06 21:04:02;;;;;;;10.23;4.25;;;;;;;9.95;55.04;98193.49;4473083;80;21186;-86
2021/05/06 21:10:06;;;;;;;7.28;3.83;;;;;;;9.75;55.40;98193.67;4472328;80;21857;-86
2021/05/06 21:16:08;;;;;;;8.85;4.25;;;;;;;9.63;55.49;98183.91;4472273;80;21138;-87
2021/05/06 21:22:10;;;;;;;13.15;5.97;;;;;;;9.43;56.00;98175.27;4472172;80;21606;-86
2021/05/06 21:28:11;;;;;;;13.32;6.53;;;;;;;9.30;56.64;98165.85;4473809;79;21127;-87
2021/05/06 21:34:14;;;;;;;13.45;7.12;;;;;;;9.26;57.40;98158.25;4479737;79;21137;-86
2021/05/06 21:40:15;;;;;;;17.77;7.20;;;;;;;9.19;57.28;98153.35;4475171;79;21574;-86
2021/05/06 21:46:17;;;;;;;14.55;6.67;;;;;;;9.11;57.79;98144.94;4499243;78;21150;-86
2021/05/06 21:52:19;;;;;;;12.93;5.90;;;;;;;9.09;58.06;98143.17;4488028;78;21114;-86
2021/05/06 21:58:20;;;;;;;33.10;12.37;;;;;;;9.07;58.05;98139.45;4478485;79;21584;-86
2021/05/06 22:04:22;;;;;;;25.35;8.43;;;;;;;9.09;58.50;98134.41;4478698;79;21174;-86
2021/05/06 22:10:25;;;;;;;14.07;8.23;;;;;;;9.16;59.63;98130.92;4497245;78;21141;-86
2021/05/06 22:16:27;;;;;;;21.50;8.75;;;;;;;9.09;59.47;98124.84;4478759;79;21284;-86
2021/05/06 22:22:28;;;;;;;17.00;7.40;;;;;;;9.01;59.50;98128.72;4513746;78;21178;-86
2021/05/06 22:28:30;;;;;;;16.95;7.80;;;;;;;8.97;59.56;98123.05;4543207;78;21145;-86
2021/05/06 22:34:31;;;;;;;14.98;6.53;;;;;;;8.98;60.28;98123.23;4486731;78;21639;-86
2021/05/06 22:40:33;;;;;;;13.85;6.00;;;;;;;8.99;60.49;98129.67;4504703;78;21156;-87
2021/05/06 22:46:35;;;;;;;11.57;3.85;;;;;;;9.01;61.19;98129.30;4499550;78;21149;-86
2021/05/06 22:52:36;;;;;;;10.20;4.40;;;;;;;9.01;60.83;98123.83;4471063;80;21118;-86
2021/05/06 22:58:38;;;;;;;9.98;3.60;;;;;;;9.05;61.57;98110.99;4474444;79;21287;-87
2021/05/06 23:04:40;;;;;;;8.45;3.45;;;;;;;9.07;61.62;98108.63;4482137;79;21153;-87
2021/05/06 23:10:42;;;;;;;9.48;3.55;;;;;;;9.09;62.34;98094.81;4473519;79;21576;-87
2021/05/06 23:16:43;;;;;;;8.50;3.30;;;;;;;9.05;62.14;98094.61;4476104;79;21275;-86
2021/05/06 23:22:44;;;;;;;6.45;2.65;;;;;;;8.97;62.59;98085.59;4477184;79;21321;-87
2021/05/06 23:28:46;;;;;;;6.42;3.22;;;;;;;8.92;63.11;98075.66;4477172;79;21768;-86
2021/05/06 23:34:48;;;;;;;5.35;2.92;;;;;;;8.86;63.48;98075.83;4506969;78;21109;-87
2021/05/06 23:40:49;;;;;;;7.17;2.75;;;;;;;8.84;64.00;98076.80;4478544;78;21622;-88
2021/05/06 23:46:51;;;;;;;6.30;3.05;;;;;;;8.71;64.93;98076.93;4474602;78;21131;-87
2021/05/06 23:52:52;;;;;;;7.05;3.08;;;;;;;8.61;65.50;98073.59;4479239;78;21622;-87
2021/05/06 23:58:54;;;;;;;8.58;3.92;;;;;;;8.49;66.39;98060.31;4477872;78;21172;-86
